Time;durP1;ratioP1;P1;durP2;ratioP2;P2;SDS_P1;SDS_P2;PMS_P1;PMS_P2;Temp;Humidity;BMP_temperature;BMP_pressure;BME280_temperature;BME280_humidity;BME280_pressure;Samples;Min_cycle;Max_cycle;Signal;HPM_P1;HPM_P2
2022/02/24 00:01:27;;;;;;;20.58;3.05;;;;;;;7.16;68.46;101455.19;5055974;28;20041;-51
2022/02/24 00:03:52;;;;;;;26.98;3.70;;;;;;;7.14;68.64;101454.50;5055535;28;20029;-51
2022/02/24 00:06:22;;;;;;;27.58;4.20;;;;;;;7.14;68.77;101446.47;5047267;28;20044;-51
2022/02/24 00:08:47;;;;;;;22.65;3.00;;;;;;;7.12;68.78;101454.63;5044624;28;20048;-51
2022/02/24 00:11:12;;;;;;;25.75;3.00;;;;;;;7.14;68.62;101441.13;5036057;28;20045;-53
2022/02/24 00:13:38;;;;;;;22.38;3.45;;;;;;;7.11;68.75;101428.88;5052991;28;20032;-53
2022/02/24 00:16:03;;;;;;;33.88;4.05;;;;;;;7.11;68.92;101457.44;5047353;28;20066;-52
2022/02/24 00:18:29;;;;;;;19.75;2.72;;;;;;;7.10;68.76;101429.84;5043831;28;20029;-54
2022/02/24 00:20:54;;;;;;;22.15;3.40;;;;;;;7.06;69.09;101431.13;5055136;28;20483;-51
2022/02/24 00:23:19;;;;;;;16.38;2.90;;;;;;;7.06;69.46;101423.09;5049746;28;20091;-50
2022/02/24 00:25:45;;;;;;;21.20;3.20;;;;;;;7.06;69.31;101433.81;5036038;28;20033;-49
2022/02/24 00:28:10;;;;;;;19.38;2.95;;;;;;;7.07;69.16;101414.06;5041296;28;20110;-52
2022/02/24 00:30:36;;;;;;;24.65;3.47;;;;;;;7.05;69.65;101413.38;5055217;28;20028;-52
2022/02/24 00:33:01;;;;;;;23.90;3.22;;;;;;;7.07;69.28;101426.63;5039443;28;20076;-52
2022/02/24 00:35:27;;;;;;;25.13;2.97;;;;;;;7.09;69.29;101422.81;5035733;28;20460;-52
2022/02/24 00:37:52;;;;;;;15.77;2.65;;;;;;;7.09;68.98;101420.13;5046210;28;21593;-52
2022/02/24 00:40:18;;;;;;;18.58;2.90;;;;;;;7.13;69.15;101408.13;5056489;28;20025;-52
2022/02/24 00:42:43;;;;;;;22.35;3.42;;;;;;;7.12;69.17;101416.31;5053066;28;20039;-51
2022/02/24 00:45:09;;;;;;;25.00;3.03;;;;;;;7.14;69.22;101419.72;5050867;28;20156;-53
2022/02/24 00:47:34;;;;;;;22.13;3.22;;;;;;;7.11;69.07;101415.47;5039149;28;20140;-51
2022/02/24 00:49:59;;;;;;;23.45;3.15;;;;;;;7.13;68.95;101402.78;5046992;28;20468;-52
2022/02/24 00:52:25;;;;;;;17.70;3.22;;;;;;;7.11;69.04;101399.44;5043467;28;20103;-50
2022/02/24 00:54:50;;;;;;;18.45;4.07;;;;;;;7.15;68.77;101390.09;5052889;28;20095;-52
2022/02/24 00:57:15;;;;;;;20.17;3.13;;;;;;;7.17;68.71;101393.47;5046358;28;20025;-54
2022/02/24 00:59:41;;;;;;;19.77;3.42;;;;;;;7.15;69.07;101395.44;5034564;28;20182;-54
2022/02/24 01:02:07;;;;;;;17.17;2.78;;;;;;;7.16;69.15;101388.25;5038336;28;20468;-52
2022/02/24 01:04:32;;;;;;;20.27;3.28;;;;;;;7.17;69.52;101389.97;5047309;28;20029;-52
2022/02/24 01:06:58;;;;;;;25.92;3.50;;;;;;;7.16;69.24;101391.81;5043412;28;20040;-53
2022/02/24 01:09:23;;;;;;;21.20;3.00;;;;;;;7.14;69.42;101383.06;5035820;28;20030;-51
2022/02/24 01:11:49;;;;;;;26.85;3.70;;;;;;;7.14;69.31;101391.09;5035401;28;20042;-53
2022/02/24 01:14:14;;;;;;;18.83;2.72;;;;;;;7.12;69.72;101373.50;5045634;28;20025;-53
2022/02/24 01:16:40;;;;;;;29.92;4.22;;;;;;;7.13;69.61;101365.31;5046792;28;20108;-51
2022/02/24 01:19:05;;;;;;;21.63;3.35;;;;;;;7.12;69.49;101358.28;5052264;28;20025;-51
2022/02/24 01:21:31;;;;;;;15.48;2.65;;;;;;;7.14;69.97;101360.81;5034216;28;20030;-51
2022/02/24 01:23:56;;;;;;;16.17;2.97;;;;;;;7.16;69.93;101353.47;5039913;28;20033;-53
2022/02/24 01:26:22;;;;;;;20.60;2.88;;;;;;;7.17;69.68;101356.00;5042304;28;20044;-53
2022/02/24 01:28:48;;;;;;;20.33;3.17;;;;;;;7.17;69.82;101360.53;5039303;28;20029;-53
2022/02/24 01:31:13;;;;;;;19.20;3.47;;;;;;;7.15;69.93;101335.72;5048783;28;20025;-52
2022/02/24 01:33:39;;;;;;;14.38;2.67;;;;;;;7.16;70.15;101348.09;5040134;28;20061;-52
2022/02/24 01:36:04;;;;;;;11.90;2.70;;;;;;;7.16;70.26;101332.03;5042077;28;20021;-52
2022/02/24 01:38:30;;;;;;;27.27;3.60;;;;;;;7.18;70.13;101340.78;5042394;28;20025;-51
2022/02/24 01:40:56;;;;;;;27.45;3.60;;;;;;;7.18;70.37;101320.19;5053945;28;20032;-53
2022/02/24 01:43:21;;;;;;;32.90;4.05;;;;;;;7.17;70.43;101329.22;5052040;28;20081;-51
2022/02/24 01:45:46;;;;;;;19.77;2.95;;;;;;;7.18;70.58;101312.16;5048827;28;20073;-54
2022/02/24 01:48:12;;;;;;;19.65;2.78;;;;;;;7.18;70.71;101312.16;5038177;28;20071;-51
2022/02/24 01:50:39;;;;;;;14.32;2.78;;;;;;;7.17;71.00;101323.88;5036851;28;20030;-51
2022/02/24 01:53:05;;;;;;;19.02;3.08;;;;;;;7.16;71.07;101308.81;5049173;28;20057;-50
2022/02/24 01:55:30;;;;;;;22.90;3.17;;;;;;;7.15;71.51;101303.59;5040938;28;20021;-51
2022/02/24 01:57:56;;;;;;;17.85;3.80;;;;;;;7.10;71.56;101301.38;5034686;28;20060;-52
2022/02/24 02:00:22;;;;;;;16.38;3.67;;;;;;;7.11;71.70;101303.06;5039651;28;20071;-52
2022/02/24 02:02:47;;;;;;;24.35;3.50;;;;;;;7.11;71.93;101297.72;5050032;28;20832;-51
2022/02/24 02:05:13;;;;;;;18.13;3.67;;;;;;;7.14;71.98;101289.38;5039536;28;20465;-53
2022/02/24 02:07:38;;;;;;;26.85;2.90;;;;;;;7.12;72.12;101286.00;5044246;28;20489;-53
2022/02/24 02:10:04;;;;;;;27.52;3.60;;;;;;;7.14;72.16;101269.81;5053227;28;20029;-54
2022/02/24 02:12:31;;;;;;;22.55;3.88;;;;;;;7.14;72.28;101269.81;5052106;28;20053;-54
2022/02/24 02:14:56;;;;;;;21.90;3.03;;;;;;;7.16;72.16;101263.31;5042107;28;20029;-54
2022/02/24 02:17:22;;;;;;;21.75;3.03;;;;;;;7.12;72.58;101269.94;5049421;28;20086;-51
2022/02/24 02:19:47;;;;;;;23.23;3.83;;;;;;;7.12;72.35;101272.63;5040747;28;20025;-50
2022/02/24 02:22:12;;;;;;;17.30;2.97;;;;;;;7.12;72.68;101266.44;5033154;28;20057;-52
2022/02/24 02:24:38;;;;;;;20.15;2.78;;;;;;;7.12;72.45;101266.44;5034729;28;20048;-52
2022/02/24 02:27:03;;;;;;;29.05;3.78;;;;;;;7.11;72.69;101262.91;5053109;28;20029;-52
2022/02/24 02:29:29;;;;;;;21.75;3.05;;;;;;;7.12;72.50;101253.88;5037337;28;20370;-52
2022/02/24 02:31:54;;;;;;;15.52;3.08;;;;;;;7.12;72.60;101248.53;5035122;28;20084;-54
2022/02/24 02:34:19;;;;;;;23.23;3.97;;;;;;;7.11;72.57;101249.53;5033076;28;20112;-54
2022/02/24 02:36:46;;;;;;;24.10;3.20;;;;;;;7.11;72.37;101238.81;5047009;28;20063;-52
2022/02/24 02:39:13;;;;;;;17.88;2.85;;;;;;;7.12;72.57;101239.66;5052668;28;20024;-52
2022/02/24 02:41:41;;;;;;;30.52;3.75;;;;;;;7.13;72.15;101244.84;5050994;28;20033;-51
2022/02/24 02:44:07;;;;;;;18.40;2.50;;;;;;;7.14;72.16;101238.53;5041146;28;20091;-52
2022/02/24 02:46:33;;;;;;;18.60;3.10;;;;;;;7.17;72.14;101238.22;5038375;28;20017;-52
2022/02/24 02:48:58;;;;;;;17.58;3.30;;;;;;;7.15;72.25;101229.50;5047188;28;20032;-51
2022/02/24 02:51:23;;;;;;;18.42;2.30;;;;;;;7.13;72.20;101231.47;5043165;28;20365;-52
2022/02/24 02:53:49;;;;;;;15.60;2.53;;;;;;;7.16;72.62;101219.63;5054806;28;20025;-54
2022/02/24 02:56:15;;;;;;;22.73;2.78;;;;;;;7.11;72.40;101217.41;5043193;28;20123;-54
2022/02/24 02:58:40;;;;;;;20.38;3.08;;;;;;;7.09;72.22;101208.69;5035699;28;20164;-53
2022/02/24 03:01:06;;;;;;;20.65;3.50;;;;;;;7.08;72.58;101206.97;5031143;28;20119;-53
2022/02/24 03:03:31;;;;;;;17.83;2.97;;;;;;;7.05;72.83;101201.94;5048187;28;20029;-53
2022/02/24 03:05:57;;;;;;;22.95;2.95;;;;;;;7.04;72.61;101194.91;5048933;28;20073;-51
2022/02/24 03:08:23;;;;;;;29.02;4.95;;;;;;;7.04;72.81;101184.22;5044552;28;20037;-50
2022/02/24 03:10:48;;;;;;;18.63;2.88;;;;;;;7.00;72.68;101181.00;5033290;28;20052;-52
2022/02/24 03:13:14;;;;;;;23.42;3.35;;;;;;;7.00;73.09;101172.09;5047502;28;20392;-53
2022/02/24 03:15:41;;;;;;;18.77;3.03;;;;;;;7.01;73.10;101179.16;5036015;28;20037;-53
2022/02/24 03:18:06;;;;;;;16.00;2.92;;;;;;;7.00;73.14;101167.63;5041535;28;20538;-51
2022/02/24 03:20:32;;;;;;;15.65;3.30;;;;;;;6.96;73.35;101168.06;5051352;28;20125;-53
2022/02/24 03:23:05;;;;;;;25.92;3.17;;;;;;;6.93;73.42;101171.88;5039664;28;20044;-54
2022/02/24 03:25:31;;;;;;;13.98;2.45;;;;;;;6.92;73.04;101153.28;5045756;28;20032;-52
2022/02/24 03:27:57;;;;;;;8.27;2.50;;;;;;;6.87;73.44;101167.09;5041955;28;20033;-52
2022/02/24 03:30:23;;;;;;;19.00;3.28;;;;;;;6.89;73.53;101153.59;5051910;28;20472;-53
2022/02/24 03:32:50;;;;;;;16.70;3.08;;;;;;;6.87;73.40;101156.41;5044433;28;20491;-52
2022/02/24 03:35:16;;;;;;;9.38;2.25;;;;;;;6.88;73.51;101151.94;5060290;28;20159;-53
2022/02/24 03:37:41;;;;;;;18.25;2.90;;;;;;;6.85;73.79;101158.41;5040548;28;20390;-50
2022/02/24 03:40:08;;;;;;;22.05;3.25;;;;;;;6.84;74.05;101154.03;5054476;28;20116;-50
2022/02/24 03:42:33;;;;;;;13.23;2.75;;;;;;;6.82;74.00;101164.91;5050990;28;20040;-52
2022/02/24 03:45:00;;;;;;;10.77;2.75;;;;;;;6.82;74.05;101159.56;5052116;28;20025;-50
2022/02/24 03:47:25;;;;;;;24.38;3.08;;;;;;;6.81;74.38;101157.03;5032144;28;20384;-54
2022/02/24 03:49:51;;;;;;;23.48;3.65;;;;;;;6.80;74.31;101150.84;5049741;28;20107;-51
2022/02/24 03:52:17;;;;;;;20.60;2.95;;;;;;;6.76;74.67;101146.75;5038575;28;20108;-51
2022/02/24 03:54:43;;;;;;;20.98;3.17;;;;;;;6.75;74.58;101141.56;5038323;28;20029;-51
2022/02/24 03:57:08;;;;;;;17.35;3.80;;;;;;;6.75;74.90;101126.38;5051833;28;20094;-52
2022/02/24 03:59:34;;;;;;;11.95;2.63;;;;;;;6.73;74.72;101131.00;5034429;28;20120;-53
2022/02/24 04:01:59;;;;;;;14.82;2.95;;;;;;;6.75;74.55;101120.19;5031783;28;20045;-53
2022/02/24 04:04:24;;;;;;;18.10;2.90;;;;;;;6.76;74.70;101113.81;5043026;28;20044;-52
2022/02/24 04:06:50;;;;;;;21.60;2.92;;;;;;;6.76;74.60;101113.81;5032744;28;20110;-52
2022/02/24 04:09:15;;;;;;;20.85;2.92;;;;;;;6.78;74.42;101119.88;5032701;28;20057;-52
2022/02/24 04:11:40;;;;;;;18.13;4.20;;;;;;;6.77;74.76;101121.72;5044238;28;20049;-51
2022/02/24 04:14:06;;;;;;;21.10;3.28;;;;;;;6.75;74.70;101113.00;5038738;28;20091;-52
2022/02/24 04:16:32;;;;;;;20.10;3.60;;;;;;;6.74;74.73;101126.50;5032569;28;20033;-51
2022/02/24 04:18:57;;;;;;;17.13;2.92;;;;;;;6.74;74.77;101114.00;5051349;28;20024;-52
2022/02/24 04:21:22;;;;;;;20.88;3.03;;;;;;;6.74;74.49;101119.34;5046141;28;20052;-51
2022/02/24 04:23:47;;;;;;;19.90;2.78;;;;;;;6.73;75.05;101114.97;5051098;28;20071;-51
2022/02/24 04:26:13;;;;;;;16.15;3.13;;;;;;;6.74;75.05;101115.81;5038134;28;20086;-51
2022/02/24 04:28:38;;;;;;;21.15;3.25;;;;;;;6.76;75.37;101114.66;5061021;28;20117;-51
2022/02/24 04:31:04;;;;;;;24.00;3.83;;;;;;;6.76;75.00;101122.69;5049643;28;20036;-53
2022/02/24 04:33:29;;;;;;;18.20;3.28;;;;;;;6.78;75.04;101118.03;5046560;28;20393;-53
2022/02/24 04:35:54;;;;;;;24.58;3.72;;;;;;;6.79;75.33;101106.34;5032473;28;20429;-53
2022/02/24 04:38:20;;;;;;;21.98;3.15;;;;;;;6.81;75.31;101107.03;5046725;28;20047;-51
2022/02/24 04:40:46;;;;;;;17.25;3.03;;;;;;;6.80;75.22;101097.31;5039535;28;20457;-50
2022/02/24 04:43:11;;;;;;;19.52;3.15;;;;;;;6.80;75.35;101091.97;5051467;28;20052;-52
2022/02/24 04:45:37;;;;;;;20.13;3.22;;;;;;;6.80;75.44;101105.34;5053349;28;20037;-53
2022/02/24 04:48:02;;;;;;;14.95;3.83;;;;;;;6.78;75.60;101083.25;5050158;28;20033;-53
2022/02/24 04:50:27;;;;;;;27.00;3.83;;;;;;;6.78;75.67;101077.91;5043016;28;20040;-51
2022/02/24 04:52:53;;;;;;;19.10;3.00;;;;;;;6.82;75.60;101073.94;5050497;28;20025;-54
2022/02/24 04:55:18;;;;;;;20.05;3.22;;;;;;;6.84;75.77;101060.41;5038221;28;20078;-54
2022/02/24 04:57:43;;;;;;;17.90;2.97;;;;;;;6.79;75.80;101060.88;5054160;28;20440;-53
2022/02/24 05:00:10;;;;;;;16.85;3.97;;;;;;;6.80;75.92;101067.06;5041577;28;20025;-52
2022/02/24 05:02:35;;;;;;;18.23;3.15;;;;;;;6.82;76.05;101070.44;5036344;28;20037;-54
2022/02/24 05:05:00;;;;;;;18.05;3.28;;;;;;;6.81;76.04;101061.53;5054590;28;20491;-51
2022/02/24 05:07:26;;;;;;;24.65;3.58;;;;;;;6.80;76.36;101059.88;5052567;28;20033;-51
2022/02/24 05:09:51;;;;;;;18.25;2.83;;;;;;;6.82;76.18;101068.59;5054097;28;20044;-53
2022/02/24 05:12:17;;;;;;;15.20;3.30;;;;;;;6.84;75.80;101054.22;5046068;28;20041;-51
2022/02/24 05:14:42;;;;;;;22.05;4.13;;;;;;;6.86;75.97;101062.94;5035759;28;20026;-53
2022/02/24 05:17:07;;;;;;;21.85;3.10;;;;;;;6.86;75.82;101052.25;5044911;28;20036;-54
2022/02/24 05:19:32;;;;;;;19.95;2.70;;;;;;;6.87;75.69;101049.38;5038412;28;20033;-54
2022/02/24 05:21:58;;;;;;;19.25;2.75;;;;;;;6.89;75.44;101049.25;5046969;28;20025;-53
2022/02/24 05:24:24;;;;;;;16.58;2.75;;;;;;;6.87;75.58;101035.19;5052889;28;20036;-53
2022/02/24 05:26:49;;;;;;;23.48;4.88;;;;;;;6.85;75.90;101026.50;5051181;28;20033;-54
2022/02/24 05:29:14;;;;;;;29.42;2.75;;;;;;;6.86;75.85;101025.47;5040139;28;20063;-53
2022/02/24 05:31:40;;;;;;;20.35;3.42;;;;;;;6.85;75.63;101023.81;5048386;28;20468;-54
2022/02/24 05:34:05;;;;;;;25.25;3.20;;;;;;;6.84;75.64;101022.13;5040957;28;20480;-54
2022/02/24 05:36:30;;;;;;;20.30;2.97;;;;;;;6.86;75.55;101015.63;5053227;28;20033;-52
2022/02/24 05:38:56;;;;;;;18.25;3.05;;;;;;;6.82;75.60;101025.78;5060031;28;20033;-51
2022/02/24 05:41:22;;;;;;;20.52;2.83;;;;;;;6.85;75.72;101003.25;5038222;28;20029;-55
2022/02/24 05:43:49;;;;;;;18.23;2.67;;;;;;;6.86;75.18;100993.38;5046346;28;20040;-51
2022/02/24 05:46:15;;;;;;;11.77;2.30;;;;;;;6.87;75.30;100987.84;5047210;28;20037;-53
2022/02/24 05:48:41;;;;;;;22.95;3.47;;;;;;;6.86;75.26;100990.72;5051294;28;20124;-52
2022/02/24 05:51:06;;;;;;;25.45;3.13;;;;;;;6.86;75.36;100980.84;5043036;28;20033;-52
2022/02/24 05:53:31;;;;;;;18.35;3.60;;;;;;;6.86;75.25;100977.31;5049548;28;20079;-51
2022/02/24 05:55:57;;;;;;;22.52;2.92;;;;;;;6.89;75.32;100971.66;5051012;28;20033;-54
2022/02/24 05:58:22;;;;;;;21.73;3.40;;;;;;;6.87;75.11;100971.81;5052633;28;20044;-54
2022/02/24 06:00:47;;;;;;;21.48;2.42;;;;;;;6.86;75.37;100964.78;5045083;28;20034;-49
2022/02/24 06:03:13;;;;;;;22.65;3.65;;;;;;;6.85;75.36;100963.13;5043907;28;20061;-49
2022/02/24 06:05:39;;;;;;;16.52;2.45;;;;;;;6.83;75.88;100962.44;5063655;28;20487;-50
2022/02/24 06:08:05;;;;;;;15.82;2.72;;;;;;;6.85;75.38;100954.25;5050884;28;20029;-50
2022/02/24 06:10:30;;;;;;;19.25;3.08;;;;;;;6.82;75.58;100958.91;5034170;28;20032;-52
2022/02/24 06:12:57;;;;;;;17.55;3.13;;;;;;;6.86;75.32;100953.25;5042831;28;20059;-50
2022/02/24 06:15:23;;;;;;;21.33;2.97;;;;;;;6.86;75.31;100950.56;5061660;28;20419;-50
2022/02/24 06:17:48;;;;;;;14.15;2.47;;;;;;;6.86;75.50;100954.09;5054656;28;20029;-50
2022/02/24 06:20:14;;;;;;;18.50;3.03;;;;;;;6.88;75.56;100960.13;5051805;28;20115;-51
2022/02/24 06:22:39;;;;;;;21.85;3.97;;;;;;;6.89;75.11;100951.09;5050631;28;20024;-52
2022/02/24 06:25:05;;;;;;;22.80;3.13;;;;;;;6.89;75.24;100955.59;5037104;28;20098;-49
2022/02/24 06:27:30;;;;;;;19.27;3.47;;;;;;;6.87;75.61;100946.88;5043183;28;20029;-50
2022/02/24 06:29:56;;;;;;;17.40;2.65;;;;;;;6.85;75.43;100940.88;5032812;28;20076;-50
2022/02/24 06:32:22;;;;;;;18.75;3.15;;;;;;;6.89;75.63;100937.72;5032935;28;20033;-49
2022/02/24 06:34:48;;;;;;;14.65;2.72;;;;;;;6.85;75.55;100920.31;5032822;28;20089;-49
2022/02/24 06:37:13;;;;;;;23.88;3.72;;;;;;;6.87;75.44;100923.66;5035091;28;20109;-52
2022/02/24 06:39:38;;;;;;;21.88;3.60;;;;;;;6.86;75.39;100931.84;5039168;28;20033;-49
2022/02/24 06:42:04;;;;;;;20.85;2.80;;;;;;;6.87;75.20;100917.47;5033971;28;20129;-49
2022/02/24 06:44:32;;;;;;;24.42;2.88;;;;;;;6.89;75.14;100926.19;5032741;28;20029;-49
2022/02/24 06:46:57;;;;;;;;;;;;;;;6.90;75.38;100926.03;5033579;28;20087;-50
2022/02/24 06:49:22;;;;;;;8.75;2.20;;;;;;;6.92;75.09;100907.13;5037201;28;19909;-51
2022/02/24 06:51:50;;;;;;;11.63;2.58;;;;;;;6.92;75.24;100912.47;5029555;28;20037;-52
2022/02/24 06:54:16;;;;;;;23.50;2.50;;;;;;;6.92;75.07;100909.81;5044062;28;20041;-50
2022/02/24 06:56:41;;;;;;;17.02;2.60;;;;;;;6.93;75.15;100900.81;5034675;28;20110;-49
2022/02/24 06:59:07;;;;;;;20.83;3.08;;;;;;;6.96;75.07;100884.44;5036507;28;20029;-49
2022/02/24 07:01:32;;;;;;;14.32;2.50;;;;;;;6.99;75.19;100884.13;5032211;28;20116;-49
2022/02/24 07:03:57;;;;;;;17.67;3.60;;;;;;;6.96;75.28;100884.44;5030235;28;20053;-51
2022/02/24 07:06:23;;;;;;;17.98;2.55;;;;;;;6.99;75.06;100873.41;5043155;28;20048;-50
2022/02/24 07:08:48;;;;;;;16.27;2.42;;;;;;;6.95;75.31;100885.41;5029120;28;20018;-52
2022/02/24 07:11:13;;;;;;;16.45;2.65;;;;;;;6.92;75.43;100877.72;5029138;28;20667;-50
2022/02/24 07:13:39;;;;;;;15.77;3.50;;;;;;;6.94;75.76;100878.41;5036319;28;20397;-50
2022/02/24 07:16:04;;;;;;;18.80;2.72;;;;;;;6.91;75.58;100881.38;5049453;28;20035;-50
2022/02/24 07:18:30;;;;;;;26.35;3.25;;;;;;;6.93;75.97;100866.84;5050738;28;20099;-49
2022/02/24 07:20:55;;;;;;;12.65;2.63;;;;;;;6.96;75.58;100873.72;5049255;28;20448;-51
2022/02/24 07:23:24;;;;;;;13.80;2.80;;;;;;;6.95;75.68;100859.53;5051782;28;20120;-49
2022/02/24 07:25:51;;;;;;;16.55;3.17;;;;;;;6.99;75.73;100843.97;5051865;28;20032;-51
2022/02/24 07:28:16;;;;;;;21.70;4.28;;;;;;;6.97;76.07;100837.94;5051825;28;20028;-50
2022/02/24 07:30:41;;;;;;;17.52;3.00;;;;;;;6.98;75.76;100850.34;5051477;28;20025;-50
2022/02/24 07:33:07;;;;;;;13.48;2.75;;;;;;;6.94;76.15;100840.94;5051589;28;20029;-53
2022/02/24 07:35:33;;;;;;;13.23;2.22;;;;;;;6.97;75.89;100829.91;5051714;28;20021;-49
2022/02/24 07:37:58;;;;;;;8.40;2.25;;;;;;;6.95;76.32;100831.91;5038675;28;20432;-49
2022/02/24 07:40:23;;;;;;;20.67;3.20;;;;;;;6.92;76.35;100821.53;5031332;28;20022;-50
2022/02/24 07:42:50;;;;;;;12.82;2.60;;;;;;;6.93;76.78;100863.34;5031556;28;20104;-49
2022/02/24 07:45:16;;;;;;;14.07;2.40;;;;;;;6.94;76.95;100824.88;5031951;28;20026;-53
2022/02/24 07:47:42;;;;;;;16.65;2.20;;;;;;;7.02;76.61;100832.94;5031984;28;20026;-49
2022/02/24 07:50:13;;;;;;;22.85;2.80;;;;;;;6.97;76.77;100824.56;5031518;28;20021;-51
2022/02/24 07:52:38;;;;;;;19.80;2.33;;;;;;;6.97;77.15;100819.22;5031898;28;20030;-52
2022/02/24 07:55:05;;;;;;;17.27;2.80;;;;;;;6.97;77.05;100822.72;5031085;28;20044;-52
2022/02/24 07:57:31;;;;;;;18.77;2.33;;;;;;;7.02;76.96;100824.91;5031195;28;20473;-53
2022/02/24 07:59:56;;;;;;;13.55;2.28;;;;;;;7.03;76.79;100831.97;5031508;28;20026;-51
2022/02/24 08:02:21;;;;;;;13.27;1.85;;;;;;;7.00;76.88;100813.53;5031647;28;20036;-51
2022/02/24 08:04:47;;;;;;;18.63;2.30;;;;;;;7.07;76.97;100846.69;5040670;28;20036;-52
2022/02/24 08:07:12;;;;;;;14.38;2.28;;;;;;;6.96;76.79;100822.91;5051403;28;20453;-50
2022/02/24 08:09:38;;;;;;;13.00;2.13;;;;;;;7.01;77.07;100821.41;5051288;28;20066;-50
2022/02/24 08:14:47;;;;;;;15.98;2.35;;;;;;;7.35;76.03;100833.97;5048617;28;20076;-50
2022/02/24 08:17:12;;;;;;;13.13;2.42;;;;;;;7.31;75.75;100811.16;5035036;28;20049;-49
2022/02/24 08:19:37;;;;;;;18.65;2.45;;;;;;;7.18;75.42;100808.94;5035288;28;20063;-50
2022/02/24 08:22:03;;;;;;;18.33;2.40;;;;;;;7.17;76.35;100798.41;5035073;28;20087;-53
2022/02/24 08:24:31;;;;;;;20.55;2.78;;;;;;;7.10;76.32;100792.84;5035189;28;20043;-50
2022/02/24 08:26:56;;;;;;;12.93;2.33;;;;;;;7.08;76.38;100784.13;5035276;28;20029;-49
2022/02/24 08:29:22;;;;;;;11.25;2.30;;;;;;;7.08;76.59;100778.78;5035009;28;20063;-50
2022/02/24 08:31:47;;;;;;;19.67;2.08;;;;;;;7.08;76.38;100773.44;5034842;28;20140;-50
2022/02/24 08:34:13;;;;;;;23.60;2.63;;;;;;;7.06;76.06;100770.09;5046433;28;20036;-49
2022/02/24 08:36:38;;;;;;;13.70;1.98;;;;;;;7.10;75.92;100771.44;5050241;28;20041;-51
2022/02/24 08:39:06;;;;;;;14.38;2.75;;;;;;;7.14;75.68;100756.75;5036679;28;20029;-51
2022/02/24 08:41:32;;;;;;;20.70;2.00;;;;;;;7.12;75.34;100744.53;5034950;28;20519;-50
2022/02/24 08:43:58;;;;;;;12.52;2.17;;;;;;;7.16;74.99;100741.38;5035040;28;20025;-50
2022/02/24 08:46:23;;;;;;;9.95;1.73;;;;;;;7.08;75.25;100727.94;5042608;28;20116;-50
2022/02/24 08:48:48;;;;;;;10.15;2.00;;;;;;;7.12;75.13;100733.81;5054676;28;20060;-52
2022/02/24 08:51:14;;;;;;;15.88;1.98;;;;;;;7.13;74.78;100722.94;5054452;28;20033;-52
2022/02/24 08:53:39;;;;;;;13.13;2.10;;;;;;;7.18;74.58;100701.88;5054468;28;20454;-52
2022/02/24 08:56:04;;;;;;;13.15;2.42;;;;;;;7.20;74.78;100710.59;5052201;28;20025;-49
2022/02/24 08:58:30;;;;;;;16.23;3.35;;;;;;;7.32;74.73;100695.06;5034230;28;20432;-49
2022/02/24 09:00:55;;;;;;;14.75;2.38;;;;;;;7.29;74.00;100710.59;5034979;28;20125;-50
2022/02/24 09:03:21;;;;;;;13.82;2.30;;;;;;;7.48;73.79;100703.13;5034592;28;20469;-52
2022/02/24 09:05:46;;;;;;;17.13;2.67;;;;;;;7.64;73.71;100710.34;5034708;28;20033;-50
2022/02/24 09:08:12;;;;;;;21.48;3.38;;;;;;;7.71;73.02;100694.44;5045662;28;20511;-50
2022/02/24 09:10:37;;;;;;;16.33;2.45;;;;;;;7.79;72.70;100694.41;5053463;28;20384;-52
2022/02/24 09:13:03;;;;;;;22.00;2.60;;;;;;;7.74;73.02;100674.50;5052795;28;20025;-50
2022/02/24 09:15:32;;;;;;;11.75;2.50;;;;;;;7.73;72.37;100664.81;5054257;28;20025;-51
2022/02/24 09:17:58;;;;;;;16.65;2.63;;;;;;;7.61;72.93;100661.59;5046191;28;20362;-51
2022/02/24 09:20:24;;;;;;;19.17;2.75;;;;;;;7.63;73.36;100654.25;5033348;28;20026;-52
2022/02/24 09:22:49;;;;;;;24.08;3.35;;;;;;;7.70;73.41;100645.38;5033617;28;20513;-51
2022/02/24 09:25:14;;;;;;;15.15;2.65;;;;;;;7.81;73.05;100638.84;5034210;28;20393;-52
2022/02/24 09:27:40;;;;;;;12.35;2.47;;;;;;;7.97;72.93;100629.09;5034081;28;20026;-50
2022/02/24 09:30:06;;;;;;;22.92;3.22;;;;;;;8.10;71.97;100630.25;5033987;28;20104;-50
2022/02/24 09:32:32;;;;;;;14.70;2.85;;;;;;;8.00;72.13;100616.19;5033885;28;20061;-48
2022/02/24 09:34:59;;;;;;;23.55;3.70;;;;;;;8.21;71.58;100621.00;5037352;28;20029;-51
2022/02/24 09:37:25;;;;;;;17.33;2.92;;;;;;;8.59;70.81;100609.69;5053838;28;20032;-53
2022/02/24 09:39:50;;;;;;;13.48;2.38;;;;;;;9.05;69.00;100597.16;5053884;28;20033;-50
2022/02/24 09:42:16;;;;;;;32.85;3.50;;;;;;;8.84;68.65;100595.13;5053633;28;20083;-50
2022/02/24 09:44:41;;;;;;;10.35;2.60;;;;;;;8.88;69.15;100582.19;5053455;28;20025;-51
2022/02/24 09:47:08;;;;;;;12.88;2.83;;;;;;;9.01;68.78;100596.69;5035128;28;20053;-50
2022/02/24 09:49:34;;;;;;;17.53;2.73;;;;;;;9.04;68.46;100618.84;5032299;28;20031;-50
2022/02/24 09:51:59;;;;;;;12.40;2.50;;;;;;;9.10;68.34;100591.28;5033068;28;20632;-50
2022/02/24 09:54:25;;;;;;;19.70;2.92;;;;;;;8.99;69.11;100582.63;5035658;28;20119;-50
2022/02/24 09:56:50;;;;;;;15.10;3.22;;;;;;;9.13;68.09;100594.44;5052699;28;20037;-49
2022/02/24 09:59:16;;;;;;;13.80;3.03;;;;;;;8.86;69.14;100582.38;5053782;28;20032;-55
2022/02/24 10:01:45;;;;;;;14.77;2.88;;;;;;;9.24;68.54;100579.75;5053495;28;20538;-49
2022/02/24 10:04:10;;;;;;;21.00;3.50;;;;;;;9.13;68.78;100575.63;5052130;28;20053;-52
2022/02/24 10:06:37;;;;;;;18.50;3.70;;;;;;;9.29;68.10;100549.66;5052805;28;20492;-51
2022/02/24 10:09:03;;;;;;;22.30;3.58;;;;;;;9.85;67.39;100534.03;5052600;28;20035;-50
2022/02/24 10:11:30;;;;;;;18.10;3.15;;;;;;;10.08;65.44;100539.31;5052641;28;20143;-50
2022/02/24 10:14:12;;;;;;;17.33;3.38;;;;;;;10.13;65.49;100530.69;5052908;28;20074;-52
2022/02/24 10:16:59;;;;;;;22.42;3.33;;;;;;;9.32;67.37;100522.44;5053048;28;20435;-53
2022/02/24 10:19:27;;;;;;;23.38;4.15;;;;;;;8.94;69.14;100531.31;5032569;28;20082;-50
2022/02/24 10:22:26;;;;;;;20.98;4.05;;;;;;;9.12;69.85;100519.44;5032987;28;20041;-51
2022/02/24 10:25:06;;;;;;;20.50;3.38;;;;;;;9.07;70.13;100541.47;5031659;28;20038;-50
2022/02/24 10:27:36;;;;;;;16.00;2.95;;;;;;;8.95;70.21;100522.25;5032490;28;20026;-49
2022/02/24 10:30:19;;;;;;;17.58;3.63;;;;;;;8.65;70.43;100526.66;5032782;28;20485;-49
2022/02/24 10:32:45;;;;;;;19.45;4.07;;;;;;;8.42;71.45;100521.25;5032314;28;20032;-52
2022/02/24 10:35:27;;;;;;;16.90;3.08;;;;;;;8.47;71.50;100501.94;5037763;28;20032;-50
2022/02/24 10:37:56;;;;;;;19.05;3.25;;;;;;;8.53;71.90;100496.72;5052517;28;20032;-50
2022/02/24 10:40:22;;;;;;;22.15;3.15;;;;;;;8.48;72.49;100499.09;5051290;28;20488;-50
2022/02/24 10:42:48;;;;;;;17.75;3.50;;;;;;;8.54;72.52;100481.47;5052585;28;20017;-49
2022/02/24 10:45:17;;;;;;;14.40;3.35;;;;;;;8.45;72.65;100498.59;5049743;28;20328;-53
2022/02/24 10:47:59;;;;;;;19.65;3.13;;;;;;;8.34;72.58;100491.75;5031858;28;20524;-49
2022/02/24 10:51:03;;;;;;;16.23;3.60;;;;;;;8.41;72.60;100490.09;5032380;28;20025;-49
2022/02/24 10:53:30;;;;;;;14.10;4.15;;;;;;;8.49;72.65;100462.38;5032381;28;20030;-50
2022/02/24 10:56:10;;;;;;;22.87;3.60;;;;;;;8.63;72.29;100458.91;5036704;28;20048;-50
2022/02/24 10:58:43;;;;;;;16.33;4.22;;;;;;;8.72;71.97;100462.41;5051594;28;20094;-52
2022/02/24 11:01:12;;;;;;;18.33;3.40;;;;;;;8.75;71.77;100462.03;5052153;28;20040;-52
2022/02/24 11:03:40;;;;;;;21.92;3.28;;;;;;;8.61;72.07;100454.75;5052359;28;20025;-52
2022/02/24 11:06:07;;;;;;;14.50;3.25;;;;;;;8.51;73.30;100463.88;5047750;28;20098;-49
2022/02/24 11:08:33;;;;;;;14.75;3.40;;;;;;;8.44;74.22;100446.81;5032175;28;20033;-50
2022/02/24 11:10:59;;;;;;;14.30;3.35;;;;;;;8.41;75.17;100436.44;5032111;28;20062;-51
2022/02/24 11:13:26;;;;;;;14.38;3.30;;;;;;;8.40;75.47;100437.47;5031947;28;20037;-53
2022/02/24 11:15:52;;;;;;;17.70;4.10;;;;;;;8.29;75.96;100425.28;5031923;28;20056;-49
2022/02/24 11:18:17;;;;;;;14.38;3.50;;;;;;;8.29;76.16;100413.69;5032106;28;20021;-51
2022/02/24 11:20:43;;;;;;;16.73;3.25;;;;;;;8.18;77.31;100419.47;5032139;28;20025;-49
2022/02/24 11:23:09;;;;;;;21.92;3.53;;;;;;;8.19;77.26;100415.75;5031888;28;20075;-48
2022/02/24 11:25:39;;;;;;;14.90;4.38;;;;;;;8.18;77.94;100417.63;5031961;28;20116;-50